Time;durP1;ratioP1;P1;durP2;ratioP2;P2;SDS_P1;SDS_P2;PMS_P1;PMS_P2;Temp;Humidity;BMP_temperature;BMP_pressure;BME280_temperature;BME280_humidity;BME280_pressure;Samples;Min_cycle;Max_cycle;Signal;HPM_P1;HPM_P2
2023/11/28 00:00:48;;;;;;;18.05;10.85;;;;;;;;;;4981388;28;20038;-78
2023/11/28 00:03:13;;;;;;;19.45;10.85;;;;;;;;;;4979012;28;20039;-77
2023/11/28 00:05:38;;;;;;;16.13;11.07;;;;;;;;;;4980807;28;20040;-77
2023/11/28 00:08:04;;;;;;;16.45;9.88;;;;;;;;;;4978440;28;20033;-76
2023/11/28 00:10:29;;;;;;;15.93;9.73;;;;;;;;;;4981421;28;20506;-77
2023/11/28 00:12:54;;;;;;;15.98;9.65;;;;;;;;;;4985449;28;20503;-77
2023/11/28 00:15:19;;;;;;;17.50;10.02;;;;;;;;;;4981204;28;20514;-77
2023/11/28 00:17:44;;;;;;;16.70;9.48;;;;;;;;;;4984039;28;20029;-77
2023/11/28 00:20:10;;;;;;;14.52;9.20;;;;;;;;;;4982377;28;20522;-77
2023/11/28 00:22:35;;;;;;;15.38;9.50;;;;;;;;;;4980129;28;20038;-77
2023/11/28 00:25:00;;;;;;;15.80;10.35;;;;;;;;;;4979894;28;20030;-77
2023/11/28 00:27:26;;;;;;;14.65;8.45;;;;;;;;;;4981945;28;20043;-77
2023/11/28 00:29:52;;;;;;;12.90;8.65;;;;;;;;;;4979741;28;20057;-77
2023/11/28 00:32:17;;;;;;;14.35;8.52;;;;;;;;;;4978820;28;20088;-77
2023/11/28 00:34:42;;;;;;;16.00;8.93;;;;;;;;;;4979574;28;20034;-76
2023/11/28 00:37:08;;;;;;;13.88;8.57;;;;;;;;;;4977326;28;20122;-77
2023/11/28 00:39:35;;;;;;;15.70;8.73;;;;;;;;;;4978926;28;20030;-77
2023/11/28 00:42:03;;;;;;;14.82;8.85;;;;;;;;;;4980716;28;20056;-77
2023/11/28 00:44:30;;;;;;;16.42;8.93;;;;;;;;;;4982087;28;20494;-76
2023/11/28 00:46:57;;;;;;;14.32;8.98;;;;;;;;;;4978105;28;20042;-77
2023/11/28 00:49:22;;;;;;;16.23;9.93;;;;;;;;;;4980608;28;20494;-76
2023/11/28 00:51:48;;;;;;;16.60;9.73;;;;;;;;;;4976788;28;20061;-76
2023/11/28 00:54:13;;;;;;;16.42;10.35;;;;;;;;;;4980272;28;20080;-77
2023/11/28 00:56:38;;;;;;;12.25;7.65;;;;;;;;;;4983128;28;20035;-77
2023/11/28 00:59:03;;;;;;;17.08;9.57;;;;;;;;;;4982769;28;20034;-77
2023/11/28 01:01:30;;;;;;;12.75;7.97;;;;;;;;;;4979735;28;20141;-77
2023/11/28 01:03:55;;;;;;;13.82;8.77;;;;;;;;;;4986811;28;20059;-77
2023/11/28 01:06:20;;;;;;;14.73;8.60;;;;;;;;;;4990394;28;20030;-77
2023/11/28 01:08:45;;;;;;;15.00;8.43;;;;;;;;;;4984319;28;20052;-77
2023/11/28 01:11:10;;;;;;;14.85;8.23;;;;;;;;;;4981947;28;20113;-76
2023/11/28 01:13:36;;;;;;;14.90;9.00;;;;;;;;;;4987020;28;20026;-77
2023/11/28 01:16:01;;;;;;;14.20;8.23;;;;;;;;;;4980676;28;20094;-77
2023/11/28 01:18:27;;;;;;;13.50;8.52;;;;;;;;;;4986638;28;20410;-77
2023/11/28 01:20:52;;;;;;;13.45;7.45;;;;;;;;;;4980737;28;20046;-77
2023/11/28 01:23:17;;;;;;;14.05;7.97;;;;;;;;;;4981572;28;20027;-77
2023/11/28 01:25:43;;;;;;;15.40;10.15;;;;;;;;;;4984054;28;20170;-76
2023/11/28 01:28:08;;;;;;;14.98;8.65;;;;;;;;;;4983182;28;20512;-77
2023/11/28 01:30:34;;;;;;;13.38;8.40;;;;;;;;;;4985300;28;20037;-77
2023/11/28 01:32:59;;;;;;;13.90;8.27;;;;;;;;;;4983321;28;20018;-76
2023/11/28 01:35:24;;;;;;;14.90;8.75;;;;;;;;;;4980253;28;20018;-77
2023/11/28 01:37:49;;;;;;;13.77;8.43;;;;;;;;;;4985824;28;20551;-77
2023/11/28 01:40:15;;;;;;;14.90;8.30;;;;;;;;;;4980202;28;20046;-77
2023/11/28 01:42:40;;;;;;;13.43;8.45;;;;;;;;;;4983661;28;20440;-77
2023/11/28 01:45:05;;;;;;;14.05;8.10;;;;;;;;;;4981354;28;20038;-76
2023/11/28 01:47:32;;;;;;;12.90;8.10;;;;;;;;;;4982631;28;20034;-77
2023/11/28 01:49:57;;;;;;;14.95;7.75;;;;;;;;;;4979874;28;20030;-77
2023/11/28 01:52:22;;;;;;;14.30;8.23;;;;;;;;;;4981812;28;20122;-77
2023/11/28 01:54:48;;;;;;;14.90;8.73;;;;;;;;;;4969357;28;20022;-77
2023/11/28 01:57:14;;;;;;;15.05;8.48;;;;;;;;;;4983845;28;20041;-76
2023/11/28 01:59:40;;;;;;;12.75;8.32;;;;;;;;;;4982376;28;20030;-77
2023/11/28 02:02:06;;;;;;;15.20;8.93;;;;;;;;;;4978932;28;20074;-77
2023/11/28 02:04:32;;;;;;;14.50;9.05;;;;;;;;;;4982148;28;20038;-77
2023/11/28 02:06:58;;;;;;;15.30;8.07;;;;;;;;;;4981001;28;20026;-77
2023/11/28 02:09:23;;;;;;;14.48;8.48;;;;;;;;;;4981483;28;20030;-76
2023/11/28 02:11:49;;;;;;;14.82;8.63;;;;;;;;;;4981150;28;20052;-78
2023/11/28 02:14:14;;;;;;;14.65;8.52;;;;;;;;;;4983118;28;20111;-77
2023/11/28 02:16:39;;;;;;;12.25;7.43;;;;;;;;;;4978112;28;20482;-77
2023/11/28 02:19:04;;;;;;;13.75;8.05;;;;;;;;;;4980943;28;20031;-77
2023/11/28 02:21:30;;;;;;;11.65;7.00;;;;;;;;;;4985171;28;20472;-76
2023/11/28 02:23:56;;;;;;;13.32;8.20;;;;;;;;;;4983516;28;20032;-77
2023/11/28 02:26:25;;;;;;;15.10;8.85;;;;;;;;;;4981464;28;20765;-77
2023/11/28 02:28:50;;;;;;;13.93;8.50;;;;;;;;;;4979693;28;20125;-77
2023/11/28 02:31:16;;;;;;;12.77;7.60;;;;;;;;;;4981327;28;20122;-76
2023/11/28 02:33:41;;;;;;;13.18;7.88;;;;;;;;;;4983201;28;20026;-78
2023/11/28 02:36:07;;;;;;;12.35;7.70;;;;;;;;;;4982333;28;20035;-77
2023/11/28 02:38:32;;;;;;;13.07;7.13;;;;;;;;;;4982417;28;20026;-76
2023/11/28 02:40:57;;;;;;;12.25;7.57;;;;;;;;;;4982329;28;20038;-77
2023/11/28 02:43:23;;;;;;;12.98;8.15;;;;;;;;;;4982834;28;20395;-77
2023/11/28 02:45:49;;;;;;;14.23;8.73;;;;;;;;;;4983230;28;20026;-77
2023/11/28 02:48:14;;;;;;;12.98;7.63;;;;;;;;;;4979155;28;20165;-76
2023/11/28 02:50:40;;;;;;;13.75;7.90;;;;;;;;;;4980518;28;20179;-75
2023/11/28 02:53:05;;;;;;;13.07;8.02;;;;;;;;;;4980788;28;20538;-77
2023/11/28 02:55:31;;;;;;;14.27;8.55;;;;;;;;;;4982440;28;20022;-77
2023/11/28 02:57:59;;;;;;;15.00;8.90;;;;;;;;;;4977432;28;20511;-77
2023/11/28 03:00:24;;;;;;;13.43;7.80;;;;;;;;;;4979317;28;20050;-77
2023/11/28 03:02:49;;;;;;;14.40;8.55;;;;;;;;;;4982421;28;20027;-77
2023/11/28 03:05:15;;;;;;;14.75;9.23;;;;;;;;;;4983832;28;20031;-77
2023/11/28 03:07:41;;;;;;;16.52;9.18;;;;;;;;;;4983491;28;20062;-77
2023/11/28 03:10:06;;;;;;;12.85;8.23;;;;;;;;;;4981818;28;20270;-77
2023/11/28 03:12:31;;;;;;;15.93;9.88;;;;;;;;;;4977295;28;20651;-77
2023/11/28 03:14:56;;;;;;;13.23;8.20;;;;;;;;;;4982509;28;20022;-77
2023/11/28 03:17:22;;;;;;;15.90;8.98;;;;;;;;;;4979404;28;20106;-77
2023/11/28 03:19:47;;;;;;;14.43;8.55;;;;;;;;;;4979863;28;20030;-77
2023/11/28 03:22:12;;;;;;;13.13;8.80;;;;;;;;;;4979763;28;20049;-77
2023/11/28 03:24:37;;;;;;;16.75;9.65;;;;;;;;;;4983043;28;20091;-77
2023/11/28 03:27:03;;;;;;;15.27;8.93;;;;;;;;;;4978445;28;20026;-77
2023/11/28 03:29:28;;;;;;;15.38;9.40;;;;;;;;;;4970133;28;20117;-77
2023/11/28 03:31:53;;;;;;;16.40;10.13;;;;;;;;;;4979226;28;20492;-77
2023/11/28 03:34:18;;;;;;;17.45;10.40;;;;;;;;;;4982185;28;20029;-77
2023/11/28 03:36:43;;;;;;;14.23;8.90;;;;;;;;;;4980407;28;20034;-77
2023/11/28 03:39:10;;;;;;;14.00;8.77;;;;;;;;;;4976888;28;20027;-76
2023/11/28 03:41:36;;;;;;;17.52;10.82;;;;;;;;;;4984646;28;20052;-77
2023/11/28 03:44:01;;;;;;;16.73;10.82;;;;;;;;;;4981056;28;20482;-77
2023/11/28 03:46:26;;;;;;;16.27;9.60;;;;;;;;;;4982285;28;20099;-77
2023/11/28 03:48:52;;;;;;;11.85;7.82;;;;;;;;;;4979871;28;20022;-77
2023/11/28 03:51:17;;;;;;;16.90;10.20;;;;;;;;;;4978625;28;20521;-77
2023/11/28 03:53:42;;;;;;;19.50;10.90;;;;;;;;;;4979182;28;20023;-77
2023/11/28 03:56:08;;;;;;;16.30;10.70;;;;;;;;;;4979311;28;20042;-77
2023/11/28 03:58:34;;;;;;;16.42;10.18;;;;;;;;;;4984149;28;20019;-77
2023/11/28 04:00:59;;;;;;;16.25;9.95;;;;;;;;;;4982223;28;20042;-76
2023/11/28 04:03:24;;;;;;;18.30;10.50;;;;;;;;;;4983242;28;20030;-77
2023/11/28 04:05:49;;;;;;;19.10;11.98;;;;;;;;;;4961820;28;20486;-77
2023/11/28 04:08:15;;;;;;;16.70;9.93;;;;;;;;;;4976896;28;20402;-77
2023/11/28 04:10:40;;;;;;;16.20;10.85;;;;;;;;;;4982960;28;20129;-78
2023/11/28 04:13:05;;;;;;;15.27;9.45;;;;;;;;;;4980793;28;20027;-77
2023/11/28 04:15:30;;;;;;;17.52;10.25;;;;;;;;;;4983803;28;20026;-77
2023/11/28 04:17:56;;;;;;;18.58;10.25;;;;;;;;;;4983565;28;20525;-78
2023/11/28 04:20:21;;;;;;;16.10;10.23;;;;;;;;;;4987180;28;20133;-77
2023/11/28 04:22:47;;;;;;;17.10;9.73;;;;;;;;;;4980323;28;20045;-78
2023/11/28 04:25:12;;;;;;;15.35;9.95;;;;;;;;;;4979153;28;20042;-78
2023/11/28 04:27:37;;;;;;;14.93;8.85;;;;;;;;;;4983054;28;20106;-78
2023/11/28 04:30:03;;;;;;;15.23;9.02;;;;;;;;;;4979686;28;20077;-76
2023/11/28 04:32:30;;;;;;;16.85;10.05;;;;;;;;;;4987624;28;20027;-78
2023/11/28 04:34:55;;;;;;;14.57;9.52;;;;;;;;;;4976900;28;20068;-77
2023/11/28 04:37:20;;;;;;;12.30;8.07;;;;;;;;;;4986534;28;20034;-78
2023/11/28 04:39:50;;;;;;;15.63;9.38;;;;;;;;;;4979543;28;20023;-78
2023/11/28 04:42:15;;;;;;;15.45;9.10;;;;;;;;;;4979921;28;20031;-77
2023/11/28 04:44:40;;;;;;;16.70;9.88;;;;;;;;;;4964813;28;20037;-78
2023/11/28 04:47:05;;;;;;;16.70;9.77;;;;;;;;;;4979178;28;20035;-77
2023/11/28 04:49:31;;;;;;;17.35;9.80;;;;;;;;;;4978666;28;20054;-79
2023/11/28 04:51:57;;;;;;;16.40;10.15;;;;;;;;;;4984407;28;20107;-79
2023/11/28 04:54:22;;;;;;;19.15;10.77;;;;;;;;;;4984528;28;20157;-79
2023/11/28 04:56:47;;;;;;;20.98;11.57;;;;;;;;;;4979981;28;20034;-80
2023/11/28 04:59:13;;;;;;;17.42;10.27;;;;;;;;;;4962975;28;20027;-78
2023/11/28 05:01:45;;;;;;;21.08;12.40;;;;;;;;;;4986364;28;20030;-78
2023/11/28 05:04:11;;;;;;;19.33;11.30;;;;;;;;;;4981806;28;20114;-79
2023/11/28 05:06:36;;;;;;;21.60;10.68;;;;;;;;;;4980681;28;20359;-79
2023/11/28 05:09:01;;;;;;;17.50;11.23;;;;;;;;;;4964476;28;20494;-79
2023/11/28 05:11:27;;;;;;;17.95;11.55;;;;;;;;;;4982829;28;20117;-79
2023/11/28 05:13:52;;;;;;;19.50;11.93;;;;;;;;;;4983218;28;20106;-78
2023/11/28 05:16:17;;;;;;;17.23;10.65;;;;;;;;;;4980560;28;20104;-79
2023/11/28 05:18:42;;;;;;;20.90;11.45;;;;;;;;;;4988766;28;20030;-79
2023/11/28 05:21:08;;;;;;;18.40;11.90;;;;;;;;;;4983505;28;20034;-78
2023/11/28 05:23:34;;;;;;;20.15;12.40;;;;;;;;;;4981916;28;20482;-78
2023/11/28 05:25:59;;;;;;;22.45;14.30;;;;;;;;;;4984645;28;20030;-78
2023/11/28 05:28:24;;;;;;;22.20;13.55;;;;;;;;;;4985242;28;20026;-77
2023/11/28 05:30:49;;;;;;;19.75;12.45;;;;;;;;;;4983831;28;20474;-79
2023/11/28 05:33:15;;;;;;;18.83;10.95;;;;;;;;;;4967003;28;20025;-78
2023/11/28 05:35:41;;;;;;;20.38;12.05;;;;;;;;;;4984742;28;20401;-78
2023/11/28 05:38:07;;;;;;;20.17;12.15;;;;;;;;;;4982379;28;20038;-78
2023/11/28 05:40:32;;;;;;;19.27;11.77;;;;;;;;;;4967077;28;20035;-76
2023/11/28 05:42:58;;;;;;;23.30;14.40;;;;;;;;;;4983945;28;20425;-78
2023/11/28 05:45:23;;;;;;;21.00;13.27;;;;;;;;;;4982786;28;20023;-78
2023/11/28 05:47:49;;;;;;;18.45;11.32;;;;;;;;;;4983361;28;20031;-78
2023/11/28 05:50:15;;;;;;;19.50;10.68;;;;;;;;;;4994307;28;20031;-78
2023/11/28 05:52:40;;;;;;;18.60;11.55;;;;;;;;;;4987316;28;20037;-78
2023/11/28 05:55:06;;;;;;;17.88;10.10;;;;;;;;;;4985440;28;20110;-79
2023/11/28 05:57:34;;;;;;;18.65;10.98;;;;;;;;;;4994107;28;20047;-78
2023/11/28 05:59:59;;;;;;;17.52;10.43;;;;;;;;;;5009027;28;20030;-77
2023/11/28 06:02:24;;;;;;;18.05;10.65;;;;;;;;;;5000229;28;20027;-77
2023/11/28 06:04:51;;;;;;;16.05;9.15;;;;;;;;;;4991953;28;20026;-78
2023/11/28 06:07:16;;;;;;;16.17;9.13;;;;;;;;;;4987558;28;20035;-78
2023/11/28 06:09:42;;;;;;;20.40;12.32;;;;;;;;;;4988411;28;20035;-78
2023/11/28 06:12:07;;;;;;;16.75;10.07;;;;;;;;;;4979801;28;20064;-78
2023/11/28 06:14:33;;;;;;;19.00;10.68;;;;;;;;;;4988838;28;20023;-77
2023/11/28 06:17:01;;;;;;;17.38;9.35;;;;;;;;;;4986846;28;20027;-77
2023/11/28 06:19:27;;;;;;;15.05;8.38;;;;;;;;;;4984346;28;20023;-77
2023/11/28 06:21:52;;;;;;;13.23;8.05;;;;;;;;;;4983714;28;20030;-78
2023/11/28 06:24:17;;;;;;;15.00;8.40;;;;;;;;;;4986473;28;20031;-78
2023/11/28 06:26:44;;;;;;;13.15;8.13;;;;;;;;;;4986751;28;20099;-77
2023/11/28 06:29:09;;;;;;;13.77;7.78;;;;;;;;;;4988411;28;20476;-77
2023/11/28 06:31:34;;;;;;;12.98;7.78;;;;;;;;;;4988487;28;20030;-78
2023/11/28 06:33:59;;;;;;;15.27;8.38;;;;;;;;;;4987334;28;20034;-78
2023/11/28 06:36:24;;;;;;;13.02;8.20;;;;;;;;;;4979313;28;20054;-78
2023/11/28 06:38:50;;;;;;;18.58;9.35;;;;;;;;;;4983698;28;20453;-78
2023/11/28 06:41:15;;;;;;;13.93;8.40;;;;;;;;;;4981052;28;20088;-78
2023/11/28 06:43:40;;;;;;;13.65;8.77;;;;;;;;;;4985779;28;20037;-78
2023/11/28 06:46:05;;;;;;;16.65;9.23;;;;;;;;;;4987382;28;20038;-78
2023/11/28 06:48:31;;;;;;;16.00;8.85;;;;;;;;;;4988080;28;20034;-78
2023/11/28 06:50:56;;;;;;;14.55;8.57;;;;;;;;;;4981477;28;20043;-78
2023/11/28 06:53:22;;;;;;;16.55;8.88;;;;;;;;;;4985225;28;20062;-78
2023/11/28 06:55:47;;;;;;;14.50;7.88;;;;;;;;;;4982792;28;20073;-78
2023/11/28 06:58:12;;;;;;;13.25;8.50;;;;;;;;;;4987082;28;20026;-78
2023/11/28 07:00:38;;;;;;;13.75;8.20;;;;;;;;;;4983432;28;20026;-78
2023/11/28 07:03:04;;;;;;;13.43;8.15;;;;;;;;;;4981720;28;20038;-77
2023/11/28 07:05:29;;;;;;;14.10;8.13;;;;;;;;;;4994756;28;20037;-78
2023/11/28 07:07:54;;;;;;;18.10;10.32;;;;;;;;;;4981448;28;20031;-77
2023/11/28 07:10:20;;;;;;;13.68;8.05;;;;;;;;;;4986236;28;20049;-77
2023/11/28 07:12:45;;;;;;;14.25;8.50;;;;;;;;;;4982411;28;20038;-78
2023/11/28 07:15:10;;;;;;;15.18;8.10;;;;;;;;;;4983154;28;20031;-78
2023/11/28 07:17:35;;;;;;;15.20;8.82;;;;;;;;;;4987309;28;20030;-78
2023/11/28 07:20:01;;;;;;;16.33;8.55;;;;;;;;;;4979912;28;20026;-78
2023/11/28 07:22:26;;;;;;;14.68;8.20;;;;;;;;;;4986366;28;20490;-78
2023/11/28 07:24:52;;;;;;;13.32;7.95;;;;;;;;;;4983515;28;20034;-78
2023/11/28 07:27:17;;;;;;;12.13;8.05;;;;;;;;;;4978724;28;20773;-78
2023/11/28 07:29:42;;;;;;;14.55;8.63;;;;;;;;;;4985353;28;20031;-77
2023/11/28 07:32:08;;;;;;;12.00;7.78;;;;;;;;;;4979999;28;20031;-78
2023/11/28 07:34:36;;;;;;;13.73;7.35;;;;;;;;;;4984373;28;20631;-78
2023/11/28 07:37:02;;;;;;;14.02;7.20;;;;;;;;;;4978518;28;20027;-78
2023/11/28 07:39:27;;;;;;;11.05;6.90;;;;;;;;;;4981247;28;20035;-78
2023/11/28 07:41:52;;;;;;;11.52;7.05;;;;;;;;;;4983671;28;20034;-78
2023/11/28 07:44:17;;;;;;;12.50;7.38;;;;;;;;;;4982197;28;20391;-78
2023/11/28 07:46:42;;;;;;;13.30;7.32;;;;;;;;;;4980182;28;20039;-78
2023/11/28 07:49:08;;;;;;;12.68;7.50;;;;;;;;;;4978357;28;20062;-78
2023/11/28 07:51:33;;;;;;;13.73;7.13;;;;;;;;;;4982214;28;20031;-78
2023/11/28 07:53:58;;;;;;;14.07;7.95;;;;;;;;;;4984846;28;20022;-77
2023/11/28 07:56:23;;;;;;;13.25;8.05;;;;;;;;;;4978814;28;20041;-77
2023/11/28 07:58:48;;;;;;;15.25;7.40;;;;;;;;;;4983863;28;20109;-77
2023/11/28 08:01:14;;;;;;;14.23;7.38;;;;;;;;;;4983129;28;20034;-78
2023/11/28 08:03:39;;;;;;;15.73;8.10;;;;;;;;;;4978524;28;20441;-77
2023/11/28 08:06:05;;;;;;;17.02;8.15;;;;;;;;;;4980869;28;20049;-78
2023/11/28 08:08:30;;;;;;;16.00;9.02;;;;;;;;;;4979163;28;20031;-77
2023/11/28 08:10:55;;;;;;;14.48;7.60;;;;;;;;;;4982855;28;20092;-78
2023/11/28 08:13:20;;;;;;;17.63;9.27;;;;;;;;;;4982628;28;20535;-77
2023/11/28 08:15:46;;;;;;;18.02;7.97;;;;;;;;;;4981497;28;20390;-77
2023/11/28 08:18:12;;;;;;;14.70;7.82;;;;;;;;;;4977704;28;20045;-77
2023/11/28 08:20:37;;;;;;;13.68;7.88;;;;;;;;;;4981896;28;20043;-78
2023/11/28 08:23:02;;;;;;;14.00;8.00;;;;;;;;;;4980600;28;20034;-77
2023/11/28 08:25:27;;;;;;;16.98;8.32;;;;;;;;;;4985656;28;20022;-77
2023/11/28 08:27:53;;;;;;;14.95;8.60;;;;;;;;;;4979951;28;20407;-78
2023/11/28 08:30:18;;;;;;;15.93;8.27;;;;;;;;;;4979408;28;20110;-78
2023/11/28 08:32:43;;;;;;;14.52;8.43;;;;;;;;;;4981782;28;20030;-77
2023/11/28 08:35:08;;;;;;;14.35;8.40;;;;;;;;;;4981255;28;20031;-77
2023/11/28 08:37:33;;;;;;;15.63;8.50;;;;;;;;;;4989572;28;20031;-77
2023/11/28 08:39:58;;;;;;;14.43;8.65;;;;;;;;;;4980681;28;20425;-77
2023/11/28 08:42:24;;;;;;;13.02;7.72;;;;;;;;;;4982507;28;20027;-77
2023/11/28 08:44:49;;;;;;;17.00;8.30;;;;;;;;;;4983597;28;20705;-78
2023/11/28 08:47:15;;;;;;;16.77;8.48;;;;;;;;;;4983959;28;20065;-76
2023/11/28 08:49:46;;;;;;;14.30;8.07;;;;;;;;;;4977205;28;20114;-76
2023/11/28 08:52:11;;;;;;;16.02;8.18;;;;;;;;;;4979669;28;20088;-77
2023/11/28 08:54:40;;;;;;;13.55;8.10;;;;;;;;;;4982169;28;20500;-77
2023/11/28 08:57:06;;;;;;;15.20;8.68;;;;;;;;;;4977129;28;20030;-77
2023/11/28 08:59:31;;;;;;;14.55;8.68;;;;;;;;;;4977348;28;20031;-77
2023/11/28 09:01:56;;;;;;;14.52;7.68;;;;;;;;;;4976289;28;20023;-77
2023/11/28 09:04:21;;;;;;;15.48;8.52;;;;;;;;;;4982289;28;20031;-77
2023/11/28 09:06:46;;;;;;;17.83;9.65;;;;;;;;;;4982889;28;20034;-77
2023/11/28 09:09:11;;;;;;;15.88;9.20;;;;;;;;;;4979751;28;20034;-77
2023/11/28 09:11:37;;;;;;;16.35;8.68;;;;;;;;;;4982180;28;20022;-77
2023/11/28 09:14:02;;;;;;;15.52;8.98;;;;;;;;;;4982270;28;20061;-77
2023/11/28 09:16:27;;;;;;;17.23;9.98;;;;;;;;;;4988548;28;20034;-77
2023/11/28 09:18:52;;;;;;;17.60;8.73;;;;;;;;;;4983959;28;20014;-77
2023/11/28 09:21:18;;;;;;;20.33;10.30;;;;;;;;;;4983191;28;20038;-76
2023/11/28 09:23:43;;;;;;;16.23;9.77;;;;;;;;;;4984586;28;20027;-77
2023/11/28 09:26:08;;;;;;;18.17;9.63;;;;;;;;;;4981452;28;20038;-77
2023/11/28 09:28:36;;;;;;;18.08;10.88;;;;;;;;;;4982463;28;20150;-76
2023/11/28 09:31:01;;;;;;;19.42;10.25;;;;;;;;;;4980821;28;20183;-78
2023/11/28 09:33:26;;;;;;;17.42;9.45;;;;;;;;;;4987076;28;20042;-77
2023/11/28 09:35:53;;;;;;;20.83;9.80;;;;;;;;;;4984403;28;20395;-77
2023/11/28 09:38:18;;;;;;;19.05;9.77;;;;;;;;;;4992293;28;20051;-77
2023/11/28 09:40:43;;;;;;;19.13;10.48;;;;;;;;;;4987769;28;20099;-77
2023/11/28 09:43:09;;;;;;;16.90;9.82;;;;;;;;;;4982443;28;20401;-77
2023/11/28 09:45:37;;;;;;;17.40;10.10;;;;;;;;;;4983793;28;20518;-77
2023/11/28 09:48:06;;;;;;;16.55;9.60;;;;;;;;;;4984177;28;20160;-77
2023/11/28 09:50:32;;;;;;;22.15;9.60;;;;;;;;;;4985217;28;20537;-77
2023/11/28 09:52:57;;;;;;;19.27;10.38;;;;;;;;;;4984194;28;20029;-77
2023/11/28 09:55:23;;;;;;;19.55;10.75;;;;;;;;;;4980082;28;20040;-76
2023/11/28 09:57:50;;;;;;;18.70;10.55;;;;;;;;;;4989298;28;20025;-77
2023/11/28 10:00:17;;;;;;;18.85;10.40;;;;;;;;;;4982127;28;20031;-76
2023/11/28 10:02:42;;;;;;;19.05;10.63;;;;;;;;;;4983206;28;20030;-76
2023/11/28 10:05:08;;;;;;;18.17;9.77;;;;;;;;;;4979364;28;20110;-77
2023/11/28 10:07:33;;;;;;;16.48;9.98;;;;;;;;;;4983388;28;20054;-77
2023/11/28 10:09:59;;;;;;;18.13;9.88;;;;;;;;;;4983490;28;20030;-77
2023/11/28 10:12:25;;;;;;;19.60;10.05;;;;;;;;;;4987590;28;20406;-77
2023/11/28 10:14:50;;;;;;;18.58;9.82;;;;;;;;;;4985071;28;20026;-76
2023/11/28 10:17:16;;;;;;;19.52;11.20;;;;;;;;;;4979120;28;20438;-77
2023/11/28 10:19:42;;;;;;;20.65;10.77;;;;;;;;;;4984074;28;20026;-77
2023/11/28 10:22:08;;;;;;;20.33;10.63;;;;;;;;;;4982857;28;20053;-77
2023/11/28 10:24:33;;;;;;;22.50;11.23;;;;;;;;;;4982374;28;20372;-77
2023/11/28 10:26:59;;;;;;;20.23;11.23;;;;;;;;;;4981926;28;20018;-77
2023/11/28 10:29:27;;;;;;;19.60;10.32;;;;;;;;;;4979961;28;20050;-77
2023/11/28 10:31:52;;;;;;;23.00;11.85;;;;;;;;;;4984518;28;20121;-77
2023/11/28 10:34:17;;;;;;;20.10;11.00;;;;;;;;;;4982769;28;20137;-77
2023/11/28 10:36:42;;;;;;;21.08;10.00;;;;;;;;;;4984224;28;20022;-76
2023/11/28 10:39:12;;;;;;;17.27;9.80;;;;;;;;;;4983639;28;20533;-77
2023/11/28 10:41:38;;;;;;;21.55;10.85;;;;;;;;;;4981166;28;20454;-77
2023/11/28 10:44:03;;;;;;;20.95;10.85;;;;;;;;;;4980240;28;20030;-77
2023/11/28 10:46:30;;;;;;;19.33;11.40;;;;;;;;;;4979460;28;20039;-77
2023/11/28 10:48:55;;;;;;;21.13;10.55;;;;;;;;;;4982939;28;20041;-77
2023/11/28 10:51:22;;;;;;;19.00;11.07;;;;;;;;;;4984101;28;20431;-76
2023/11/28 10:53:48;;;;;;;21.40;11.27;;;;;;;;;;4985735;28;20185;-78
2023/11/28 10:56:14;;;;;;;21.13;11.98;;;;;;;;;;4985992;28;20031;-77
2023/11/28 10:58:40;;;;;;;20.10;11.73;;;;;;;;;;4983116;28;20027;-77
2023/11/28 11:01:06;;;;;;;18.90;11.10;;;;;;;;;;4984289;28;20045;-77
2023/11/28 11:03:32;;;;;;;17.60;10.48;;;;;;;;;;4978470;28;20101;-77
2023/11/28 11:05:57;;;;;;;23.17;10.70;;;;;;;;;;4986196;28;20058;-77
2023/11/28 11:08:23;;;;;;;22.33;11.40;;;;;;;;;;4982680;28;20043;-78
2023/11/28 11:10:49;;;;;;;17.45;10.30;;;;;;;;;;4982102;28;20107;-77
2023/11/28 11:13:20;;;;;;;19.17;10.70;;;;;;;;;;4984340;28;20043;-77
2023/11/28 11:16:01;;;;;;;19.13;12.00;;;;;;;;;;4981642;28;20073;-77
2023/11/28 11:18:34;;;;;;;23.35;11.80;;;;;;;;;;4980226;28;20014;-77
2023/11/28 11:21:02;;;;;;;20.63;11.15;;;;;;;;;;4982956;28;20149;-76
2023/11/28 11:23:28;;;;;;;19.10;10.63;;;;;;;;;;4987178;28;20083;-77
2023/11/28 11:25:53;;;;;;;20.38;11.50;;;;;;;;;;4986810;28;20035;-76
2023/11/28 11:28:18;;;;;;;18.83;9.75;;;;;;;;;;4984481;28;20407;-77
2023/11/28 11:30:45;;;;;;;15.38;8.85;;;;;;;;;;4982060;28;20529;-76
2023/11/28 11:33:11;;;;;;;19.60;10.48;;;;;;;;;;4981147;28;20175;-76
2023/11/28 11:35:54;;;;;;;16.52;10.07;;;;;;;;;;4980728;28;20523;-76
2023/11/28 11:38:25;;;;;;;19.70;11.00;;;;;;;;;;4977761;28;20031;-76
2023/11/28 11:40:51;;;;;;;17.67;9.68;;;;;;;;;;4982436;28;20057;-76
2023/11/28 11:43:17;;;;;;;21.80;10.05;;;;;;;;;;4983242;28;20042;-75
2023/11/28 11:45:47;;;;;;;18.77;10.20;;;;;;;;;;4971342;28;20055;-76
2023/11/28 11:48:22;;;;;;;15.60;9.82;;;;;;;;;;4982559;28;20030;-75
2023/11/28 11:50:48;;;;;;;21.15;10.93;;;;;;;;;;4986442;28;20041;-76
2023/11/28 11:53:13;;;;;;;19.38;10.73;;;;;;;;;;4980053;28;20027;-76
2023/11/28 11:55:43;;;;;;;23.52;11.60;;;;;;;;;;4985481;28;20026;-75
2023/11/28 11:58:09;;;;;;;19.35;11.02;;;;;;;;;;4977772;28;20077;-75
2023/11/28 12:00:35;;;;;;;19.50;10.30;;;;;;;;;;4978929;28;20058;-76
2023/11/28 12:03:00;;;;;;;18.38;9.98;;;;;;;;;;4981790;28;20029;-76
2023/11/28 12:05:25;;;;;;;19.55;10.27;;;;;;;;;;4978451;28;20494;-76
2023/11/28 12:07:52;;;;;;;17.50;10.25;;;;;;;;;;4983578;28;20019;-76
2023/11/28 12:10:17;;;;;;;16.45;9.20;;;;;;;;;;4981096;28;20027;-76
2023/11/28 12:12:43;;;;;;;25.25;14.00;;;;;;;;;;4984105;28;20539;-76
2023/11/28 12:15:12;;;;;;;24.08;13.73;;;;;;;;;;4979145;28;20056;-76
2023/11/28 12:17:39;;;;;;;28.05;13.90;;;;;;;;;;4978517;28;20509;-76
2023/11/28 12:20:05;;;;;;;22.13;12.85;;;;;;;;;;4984432;28;20030;-76
2023/11/28 12:22:33;;;;;;;34.33;16.38;;;;;;;;;;4983418;28;20088;-75
2023/11/28 12:24:58;;;;;;;21.45;12.65;;;;;;;;;;4982270;28;20030;-76
2023/11/28 12:27:24;;;;;;;28.60;15.63;;;;;;;;;;4977074;28;20432;-75
2023/11/28 12:29:49;;;;;;;32.55;16.92;;;;;;;;;;4979641;28;20575;-76
2023/11/28 12:32:14;;;;;;;24.15;13.48;;;;;;;;;;4979901;28;20038;-76
2023/11/28 12:34:40;;;;;;;21.60;12.52;;;;;;;;;;4981536;28;20114;-76
2023/11/28 12:37:07;;;;;;;25.55;13.30;;;;;;;;;;4978506;28;20033;-76
2023/11/28 12:39:32;;;;;;;27.92;14.75;;;;;;;;;;4980216;28;20030;-75
2023/11/28 12:41:57;;;;;;;24.13;13.93;;;;;;;;;;4980740;28;20116;-76
2023/11/28 12:44:30;;;;;;;26.08;14.02;;;;;;;;;;4978746;28;20084;-76
2023/11/28 12:46:57;;;;;;;29.75;16.10;;;;;;;;;;4978039;28;20037;-76
2023/11/28 12:49:22;;;;;;;29.23;16.85;;;;;;;;;;4981041;28;20112;-76
2023/11/28 12:51:48;;;;;;;28.30;16.05;;;;;;;;;;4986725;28;20042;-76
2023/11/28 12:54:13;;;;;;;32.22;16.52;;;;;;;;;;4983579;28;20030;-76
2023/11/28 12:56:43;;;;;;;31.40;16.95;;;;;;;;;;4986048;28;20533;-75
2023/11/28 12:59:09;;;;;;;31.40;16.92;;;;;;;;;;4981790;28;20027;-75
2023/11/28 13:01:34;;;;;;;31.10;17.50;;;;;;;;;;4982415;28;20411;-76
2023/11/28 13:04:00;;;;;;;28.67;16.67;;;;;;;;;;4983233;28;20069;-75
2023/11/28 13:06:26;;;;;;;36.33;19.05;;;;;;;;;;4981847;28;20035;-76
2023/11/28 13:08:52;;;;;;;33.47;18.10;;;;;;;;;;4981317;28;20030;-75
2023/11/28 13:11:18;;;;;;;31.08;17.33;;;;;;;;;;4984271;28;20040;-76
2023/11/28 13:13:43;;;;;;;35.13;17.95;;;;;;;;;;4982018;28;20085;-75
2023/11/28 13:16:09;;;;;;;33.70;17.85;;;;;;;;;;4983503;28;20038;-75
2023/11/28 13:18:35;;;;;;;29.95;17.08;;;;;;;;;;4982221;28;20023;-75
2023/11/28 13:21:01;;;;;;;31.40;17.20;;;;;;;;;;4985601;28;20041;-75
2023/11/28 13:23:29;;;;;;;33.50;16.73;;;;;;;;;;4987485;28;20030;-75
2023/11/28 13:25:54;;;;;;;35.85;18.17;;;;;;;;;;4983047;28;20764;-75
2023/11/28 13:28:20;;;;;;;33.13;17.90;;;;;;;;;;4982196;28;20038;-75
2023/11/28 13:30:45;;;;;;;31.75;16.92;;;;;;;;;;4985291;28;20030;-76
2023/11/28 13:33:10;;;;;;;26.63;15.33;;;;;;;;;;4984391;28;20479;-76
2023/11/28 13:35:38;;;;;;;31.42;16.52;;;;;;;;;;4988191;28;20026;-76
2023/11/28 13:38:04;;;;;;;28.58;15.18;;;;;;;;;;4978994;28;20034;-76
2023/11/28 13:40:30;;;;;;;29.38;16.02;;;;;;;;;;4988976;28;20041;-76
2023/11/28 13:42:55;;;;;;;30.77;17.50;;;;;;;;;;4988075;28;20031;-76
2023/11/28 13:45:22;;;;;;;30.13;17.25;;;;;;;;;;4984929;28;20522;-76
2023/11/28 13:47:47;;;;;;;28.50;15.67;;;;;;;;;;4981901;28;20105;-75
2023/11/28 13:50:12;;;;;;;35.20;18.80;;;;;;;;;;4979891;28;20496;-76
2023/11/28 13:52:37;;;;;;;30.87;15.23;;;;;;;;;;4986260;28;20042;-76
2023/11/28 13:55:03;;;;;;;29.27;15.57;;;;;;;;;;4985665;28;20042;-77
2023/11/28 13:57:28;;;;;;;31.70;16.97;;;;;;;;;;4983699;28;20429;-76
2023/11/28 13:59:54;;;;;;;27.80;16.07;;;;;;;;;;4981672;28;20432;-76
2023/11/28 14:02:19;;;;;;;26.87;15.10;;;;;;;;;;4983825;28;20046;-76
2023/11/28 14:04:44;;;;;;;26.17;14.67;;;;;;;;;;4986603;28;20034;-76
2023/11/28 14:07:11;;;;;;;29.27;16.77;;;;;;;;;;4981694;28;20031;-75
2023/11/28 14:09:36;;;;;;;25.73;14.67;;;;;;;;;;4983115;28;20042;-76
2023/11/28 14:12:01;;;;;;;27.37;15.30;;;;;;;;;;4984086;28;20034;-76
2023/11/28 14:14:27;;;;;;;24.53;15.00;;;;;;;;;;4981771;28;20038;-76